FW1212 Weather Reports


Display with metric or nautical units.
time (UTC)temp
F
wind
direction
speed
MPH
gust
MPH
rain 1hr
in
rain 24hr
in
rain mn
in
humidity
%
barometer
mb
20190817174729 65 198 0.0 3.0 0.00 0.00 0.00 60 1012.5
20190817173144 66 200 0.0 0.0 0.00 0.00 0.00 59 1012.5
20190817171638 67 198 0.0 0.0 0.00 0.00 0.00 57 1012.4
20190817170223 68 198 0.0 4.0 0.00 0.00 0.00 54 1012.4
20190817164630 69 215 0.0 3.0 0.00 0.00 0.00 52 1012.3
20190817163152 70 196 0.0 8.0 0.00 0.00 0.00 50 1012.3
20190817161647 71 200 1.0 8.0 0.00 0.00 0.00 48 1012.3
20190817160148 72 271 2.0 9.0 0.00 0.00 0.00 47 1012.2
20190817154656 71 269 1.0 12.0 0.00 0.00 0.00 48 1012.2
20190817153137 72 317 2.0 9.0 0.00 0.00 0.00 47 1012.1
20190817151701 72 240 3.0 12.0 0.00 0.00 0.00 46 1012.2
20190817143148 73 263 3.0 13.0 0.00 0.00 0.00 46 1012.1
20190817141707 75 281 4.0 13.0 0.00 0.00 0.00 42 1011.9
20190817134602 72 281 4.0 12.0 0.00 0.00 0.00 45 1012.0
20190817133128 73 233 5.0 15.0 0.00 0.00 0.00 44 1012.0
20190817131606 75 274 5.0 13.0 0.00 0.00 0.00 42 1011.8
20190817124614 73 205 5.0 16.0 0.00 0.00 0.00 44 1012.1
20190817123114 72 250 6.0 18.0 0.00 0.00 0.00 46 1012.1
20190817121620 72 279 4.0 14.0 0.00 0.00 0.00 46 1012.1
20190817120120 73 171 3.0 13.0 0.00 0.00 0.00 47 1012.1
20190817114539 72 271 6.0 18.0 0.00 0.00 0.00 46 1012.2
20190817111557 71 258 3.0 11.0 0.00 0.00 0.00 49 1012.4
20190817110048 73 271 4.0 11.0 0.00 0.00 0.00 47 1012.4
20190817104541 72 306 8.0 17.0 0.00 0.00 0.00 46 1012.6
20190817101553 71 294 12.0 21.0 0.00 0.00 0.00 45 1012.5
20190817100034 71 179 4.0 15.0 0.00 0.00 0.00 47 1012.5
20190817094520 70 309 13.0 22.0 0.00 0.00 0.00 47 1012.5
20190817093021 71 339 6.0 14.0 0.00 0.00 0.00 48 1012.6
20190817091534 70 273 4.0 13.0 0.00 0.00 0.00 48 1012.8
20190817084520 69 201 6.0 15.0 0.00 0.00 0.00 49 1012.9
20190817083002 68 288 8.0 17.0 0.00 0.00 0.00 53 1013.1
20190817081808 67 306 3.0 11.0 0.00 0.00 0.00 60 1013.1
20190817080214 67 285 2.0 11.0 0.00 0.00 0.00 60 1013.3
20190817074811 66 269 2.0 12.0 0.00 0.00 0.00 61 1013.3
20190817073243 66 269 4.0 10.0 0.00 0.00 0.00 60 1013.3
20190817071620 67 283 5.0 12.0 0.00 0.00 0.00 58 1013.4
20190817070138 66 305 2.0 8.0 0.00 0.00 0.00 61 1013.3
20190817064801 65 152 2.0 9.0 0.00 0.00 0.00 63 1013.4
20190817063112 64 279 3.0 10.0 0.00 0.00 0.00 63 1013.5
20190817061655 63 288 1.0 6.0 0.00 0.00 0.00 67 1013.5
20190817060134 61 218 1.0 7.0 0.00 0.00 0.00 70 1013.4
20190817054641 59 196 2.0 7.0 0.00 0.00 0.00 74 1013.4
20190817053121 58 160 1.0 4.0 0.00 0.00 0.00 77 1013.3
20190817051550 57 289 0.0 3.0 0.00 0.00 0.00 79 1013.3
20190817050100 55 291 2.0 6.0 0.00 0.00 0.00 81 1013.1
20190817044551 53 265 0.0 2.0 0.00 0.00 0.00 84 1013.0
20190817043057 53 265 0.0 2.0 0.00 0.00 0.00 84 1012.9
20190817041554 53 265 0.0 0.0 0.00 0.00 0.00 85 1012.9
20190817040035 51 265 0.0 0.0 0.00 0.00 0.00 87 1012.9
20190817034700 50 265 0.0 0.0 0.00 0.00 0.00 88 1012.7
20190817033031 49 265 0.0 0.0 0.00 0.00 0.00 88 1012.8
20190817031601 50 265 0.0 0.0 0.00 0.00 0.00 88 1012.9
20190817030049 49 265 0.0 2.0 0.00 0.00 0.00 90 1012.8
20190817024555 48 265 0.0 0.0 0.00 0.00 0.00 90 1012.8
20190817023057 48 265 0.0 0.0 0.00 0.00 0.00 90 1012.8
20190817021524 48 265 0.0 0.0 0.00 0.00 0.00 89 1012.8
20190817020023 48 265 0.0 0.0 0.00 0.00 0.00 88 1012.9
20190817014516 48 265 0.0 0.0 0.00 0.00 0.00 88 1012.8
20190817013013 49 265 0.0 0.0 0.00 0.00 0.00 88 1012.8
20190817011527 49 265 0.0 0.0 0.00 0.00 0.00 87 1012.9
20190817010010 49 265 0.0 0.0 0.00 0.00 0.00 88 1012.8
20190817004539 49 265 0.0 0.0 0.00 0.00 0.00 87 1012.8
20190817003008 49 265 0.0 0.0 0.00 0.00 0.00 87 1012.7
20190817001520 50 265 0.0 0.0 0.00 0.00 0.00 86 1012.7
20190817000004 50 265 0.0 0.0 0.00 0.00 0.00 87 1012.7
20190816234519 50 265 0.0 2.0 0.00 0.00 0.00 87 1012.7
20190816233002 51 265 0.0 0.0 0.00 0.00 0.00 87 1012.8
20190816231649 51 265 0.0 2.0 0.00 0.00 0.00 88 1012.9
20190816230158 50 265 0.0 0.0 0.00 0.00 0.00 87 1013.0
20190816224735 51 265 0.0 0.0 0.00 0.00 0.00 86 1013.0
20190816223132 51 265 0.0 0.0 0.00 0.00 0.00 86 1013.0
20190816221606 51 265 0.0 0.0 0.00 0.00 0.00 86 1013.0
20190816220228 52 265 0.0 0.0 0.00 0.00 0.00 86 1013.0
20190816214842 52 265 0.0 0.0 0.00 0.00 0.00 85 1013.0
20190816213206 53 265 0.0 0.0 0.00 0.00 0.00 84 1013.1
20190816211641 54 265 0.0 0.0 0.00 0.00 0.00 83 1013.1
20190816210141 54 265 0.0 0.0 0.00 0.00 0.00 81 1013.0
20190816204639 55 265 0.0 0.0 0.00 0.00 0.00 80 1013.0
20190816203145 56 265 0.0 0.0 0.00 0.00 0.00 79 1012.9
20190816201606 57 265 0.0 0.0 0.00 0.00 0.00 77 1012.8
20190816200208 57 265 0.0 0.0 0.00 0.00 0.00 77 1012.8
20190816194541 57 265 0.0 0.0 0.00 0.00 0.00 78 1012.8
20190816193119 58 265 0.0 0.0 0.00 0.00 0.00 76 1012.7
20190816191556 59 265 0.0 0.0 0.00 0.00 0.00 75 1012.7
20190816190138 60 265 0.0 0.0 0.00 0.00 0.00 74 1012.6
20190816184615 61 265 0.0 0.0 0.00 0.00 0.00 70 1012.6
20190816183040 62 265 0.0 0.0 0.00 0.00 0.00 68 1012.5
20190816181602 63 265 0.0 0.0 0.00 0.00 0.00 66 1012.4
20190816180040 65 265 0.0 0.0 0.00 0.00 0.00 63 1012.3